sensor_id;sensor_type;location;lat;lon;timestamp;pressure;altitude;pressure_sealevel;temperature;humidity
29907;BME280;16776;50.958;10.994;2022-07-23T00:01:50;98629.63;;;20.13;92.33
29907;BME280;16776;50.958;10.994;2022-07-23T00:04:16;98628.34;;;20.06;92.41
29907;BME280;16776;50.958;10.994;2022-07-23T00:06:43;98634.72;;;20.02;92.86
29907;BME280;16776;50.958;10.994;2022-07-23T00:09:10;98637.50;;;19.99;92.52
29907;BME280;16776;50.958;10.994;2022-07-23T00:11:36;98639.59;;;19.94;92.93
29907;BME280;16776;50.958;10.994;2022-07-23T00:14:03;98641.69;;;19.89;92.87
29907;BME280;16776;50.958;10.994;2022-07-23T00:16:29;98639.13;;;19.88;92.84
29907;BME280;16776;50.958;10.994;2022-07-23T00:18:57;98629.44;;;19.90;93.21
29907;BME280;16776;50.958;10.994;2022-07-23T00:21:26;98613.81;;;19.88;93.12
29907;BME280;16776;50.958;10.994;2022-07-23T00:23:53;98604.22;;;19.89;93.28
29907;BME280;16776;50.958;10.994;2022-07-23T00:26:19;98601.50;;;19.90;93.40
29907;BME280;16776;50.958;10.994;2022-07-23T00:28:46;98604.88;;;19.92;93.37
29907;BME280;16776;50.958;10.994;2022-07-23T00:31:12;98599.53;;;19.94;93.15
29907;BME280;16776;50.958;10.994;2022-07-23T00:33:39;98607.47;;;19.92;93.15
29907;BME280;16776;50.958;10.994;2022-07-23T00:36:08;98594.22;;;19.95;92.66
29907;BME280;16776;50.958;10.994;2022-07-23T00:38:34;98595.53;;;19.88;93.32
29907;BME280;16776;50.958;10.994;2022-07-23T00:41:01;98602.09;;;19.81;93.18
29907;BME280;16776;50.958;10.994;2022-07-23T00:43:27;98601.56;;;19.76;92.99
29907;BME280;16776;50.958;10.994;2022-07-23T00:45:54;98597.66;;;19.69;93.34
29907;BME280;16776;50.958;10.994;2022-07-23T00:48:20;98601.50;;;19.63;93.56
29907;BME280;16776;50.958;10.994;2022-07-23T00:50:47;98607.84;;;19.59;93.64
29907;BME280;16776;50.958;10.994;2022-07-23T00:53:16;98609.75;;;19.57;93.60
29907;BME280;16776;50.958;10.994;2022-07-23T00:55:42;98609.91;;;19.54;94.00
29907;BME280;16776;50.958;10.994;2022-07-23T00:58:09;98619.44;;;19.55;93.97
29907;BME280;16776;50.958;10.994;2022-07-23T01:00:36;98616.63;;;19.58;93.90
29907;BME280;16776;50.958;10.994;2022-07-23T01:03:02;98613.91;;;19.60;94.20
29907;BME280;16776;50.958;10.994;2022-07-23T01:05:29;98617.28;;;19.62;93.94
29907;BME280;16776;50.958;10.994;2022-07-23T01:07:56;98611.97;;;19.63;94.11
29907;BME280;16776;50.958;10.994;2022-07-23T01:10:24;98608.81;;;19.71;93.94
29907;BME280;16776;50.958;10.994;2022-07-23T01:13:02;98595.03;;;19.69;93.88
29907;BME280;16776;50.958;10.994;2022-07-23T01:15:29;98589.81;;;19.69;93.91
29907;BME280;16776;50.958;10.994;2022-07-23T01:17:56;98584.59;;;19.69;94.13
29907;BME280;16776;50.958;10.994;2022-07-23T01:20:25;98580.31;;;19.68;94.13
29907;BME280;16776;50.958;10.994;2022-07-23T01:22:53;98587.13;;;19.70;93.82
29907;BME280;16776;50.958;10.994;2022-07-23T01:25:20;98582.16;;;19.66;93.92
29907;BME280;16776;50.958;10.994;2022-07-23T01:27:47;98578.84;;;19.64;94.05
29907;BME280;16776;50.958;10.994;2022-07-23T01:30:14;98582.47;;;19.61;93.99
29907;BME280;16776;50.958;10.994;2022-07-23T01:32:41;98576.50;;;19.59;94.20
29907;BME280;16776;50.958;10.994;2022-07-23T01:35:08;98571.28;;;19.59;94.16
29907;BME280;16776;50.958;10.994;2022-07-23T01:37:35;98571.41;;;19.58;94.48
29907;BME280;16776;50.958;10.994;2022-07-23T01:40:04;98581.63;;;19.61;94.25
29907;BME280;16776;50.958;10.994;2022-07-23T01:42:31;98574.19;;;19.55;94.57
29907;BME280;16776;50.958;10.994;2022-07-23T01:44:58;98579.41;;;19.55;94.44
29907;BME280;16776;50.958;10.994;2022-07-23T01:47:27;98563.84;;;19.53;94.72
29907;BME280;16776;50.958;10.994;2022-07-23T01:49:53;98569.81;;;19.55;94.53
29907;BME280;16776;50.958;10.994;2022-07-23T01:52:20;98560.19;;;19.56;94.68
29907;BME280;16776;50.958;10.994;2022-07-23T01:54:46;98545.38;;;19.56;94.71
29907;BME280;16776;50.958;10.994;2022-07-23T01:57:14;98549.34;;;19.62;94.67
29907;BME280;16776;50.958;10.994;2022-07-23T01:59:40;98538.16;;;19.60;94.87
29907;BME280;16776;50.958;10.994;2022-07-23T02:02:07;98529.38;;;19.61;94.74
29907;BME280;16776;50.958;10.994;2022-07-23T02:04:34;98525.09;;;19.60;94.51
29907;BME280;16776;50.958;10.994;2022-07-23T02:07:02;98530.31;;;19.60;94.60
29907;BME280;16776;50.958;10.994;2022-07-23T02:09:28;98521.75;;;19.58;94.68
29907;BME280;16776;50.958;10.994;2022-07-23T02:11:56;98530.53;;;19.57;94.53
29907;BME280;16776;50.958;10.994;2022-07-23T02:14:24;98530.53;;;19.57;94.68
29907;BME280;16776;50.958;10.994;2022-07-23T02:16:50;98542.09;;;19.53;94.67
29907;BME280;16776;50.958;10.994;2022-07-23T02:19:17;98549.09;;;19.52;94.81
29907;BME280;16776;50.958;10.994;2022-07-23T02:21:44;98549.22;;;19.51;94.92
29907;BME280;16776;50.958;10.994;2022-07-23T02:24:10;98543.25;;;19.49;94.87
29907;BME280;16776;50.958;10.994;2022-07-23T02:26:37;98542.22;;;19.51;95.02
29907;BME280;16776;50.958;10.994;2022-07-23T02:29:04;98546.59;;;19.51;94.99
29907;BME280;16776;50.958;10.994;2022-07-23T02:31:32;98543.78;;;19.54;94.79
29907;BME280;16776;50.958;10.994;2022-07-23T02:33:59;98565.81;;;19.50;94.92
29907;BME280;16776;50.958;10.994;2022-07-23T02:36:25;98642.50;;;19.49;94.94
29907;BME280;16776;50.958;10.994;2022-07-23T02:38:52;98720.09;;;19.47;94.88
29907;BME280;16776;50.958;10.994;2022-07-23T02:41:18;98732.22;;;19.48;94.94
29907;BME280;16776;50.958;10.994;2022-07-23T02:43:45;98740.06;;;19.48;95.04
29907;BME280;16776;50.958;10.994;2022-07-23T02:46:12;98721.03;;;19.46;95.11
29907;BME280;16776;50.958;10.994;2022-07-23T02:48:40;98703.50;;;19.48;95.46
29907;BME280;16776;50.958;10.994;2022-07-23T02:51:06;98679.44;;;19.43;95.94
29907;BME280;16776;50.958;10.994;2022-07-23T02:53:33;98587.50;;;19.38;96.19
29907;BME280;16776;50.958;10.994;2022-07-23T02:55:59;98541.72;;;19.32;96.37
29907;BME280;16776;50.958;10.994;2022-07-23T02:58:26;98533.72;;;19.21;96.72
29907;BME280;16776;50.958;10.994;2022-07-23T03:00:52;98537.38;;;19.04;96.81
29907;BME280;16776;50.958;10.994;2022-07-23T03:03:19;98536.75;;;18.86;97.16
29907;BME280;16776;50.958;10.994;2022-07-23T03:05:47;98541.88;;;18.74;97.25
29907;BME280;16776;50.958;10.994;2022-07-23T03:08:14;98489.53;;;18.48;97.74
29907;BME280;16776;50.958;10.994;2022-07-23T03:10:41;98494.91;;;18.45;97.93
29907;BME280;16776;50.958;10.994;2022-07-23T03:13:07;98486.97;;;18.33;97.96
29907;BME280;16776;50.958;10.994;2022-07-23T03:15:34;98478.78;;;18.25;98.35
29907;BME280;16776;50.958;10.994;2022-07-23T03:18:00;98487.72;;;18.21;98.62
29907;BME280;16776;50.958;10.994;2022-07-23T03:20:27;98493.41;;;18.13;99.09
29907;BME280;16776;50.958;10.994;2022-07-23T03:22:55;98529.91;;;18.27;99.01
29907;BME280;16776;50.958;10.994;2022-07-23T03:25:21;98526.28;;;18.30;99.67
29907;BME280;16776;50.958;10.994;2022-07-23T03:27:48;98519.66;;;18.38;99.75
29907;BME280;16776;50.958;10.994;2022-07-23T03:30:14;98537.75;;;18.41;99.09
29907;BME280;16776;50.958;10.994;2022-07-23T03:32:41;98533.53;;;18.39;99.25
29907;BME280;16776;50.958;10.994;2022-07-23T03:35:08;98540.81;;;18.34;99.37
29907;BME280;16776;50.958;10.994;2022-07-23T03:37:35;98560.25;;;18.28;99.38
29907;BME280;16776;50.958;10.994;2022-07-23T03:40:04;98594.31;;;18.25;99.30
29907;BME280;16776;50.958;10.994;2022-07-23T03:42:30;98604.63;;;18.12;99.73
29907;BME280;16776;50.958;10.994;2022-07-23T03:44:57;98580.78;;;18.04;100.00
29907;BME280;16776;50.958;10.994;2022-07-23T03:47:23;98565.59;;;17.97;100.00
29907;BME280;16776;50.958;10.994;2022-07-23T03:49:50;98547.72;;;17.91;100.00
29907;BME280;16776;50.958;10.994;2022-07-23T03:52:16;98541.75;;;17.89;100.00
29907;BME280;16776;50.958;10.994;2022-07-23T03:54:43;98558.50;;;17.85;100.00
29907;BME280;16776;50.958;10.994;2022-07-23T03:57:11;98543.88;;;17.82;100.00
29907;BME280;16776;50.958;10.994;2022-07-23T03:59:37;98529.44;;;17.76;100.00
29907;BME280;16776;50.958;10.994;2022-07-23T04:02:04;98544.28;;;17.74;100.00
29907;BME280;16776;50.958;10.994;2022-07-23T04:04:30;98531.03;;;17.63;100.00
29907;BME280;16776;50.958;10.994;2022-07-23T04:06:57;98535.13;;;17.67;100.00
29907;BME280;16776;50.958;10.994;2022-07-23T04:09:23;98544.81;;;17.65;100.00
29907;BME280;16776;50.958;10.994;2022-07-23T04:11:52;98555.38;;;17.62;100.00
29907;BME280;16776;50.958;10.994;2022-07-23T04:14:20;98540.69;;;17.61;100.00
29907;BME280;16776;50.958;10.994;2022-07-23T04:16:46;98538.34;;;17.57;100.00
29907;BME280;16776;50.958;10.994;2022-07-23T04:19:13;98547.28;;;17.53;100.00
29907;BME280;16776;50.958;10.994;2022-07-23T04:21:39;98589.00;;;17.51;100.00
29907;BME280;16776;50.958;10.994;2022-07-23T04:24:06;98649.88;;;17.49;100.00
29907;BME280;16776;50.958;10.994;2022-07-23T04:26:33;98663.09;;;17.46;100.00
29907;BME280;16776;50.958;10.994;2022-07-23T04:28:59;98657.13;;;17.44;100.00
29907;BME280;16776;50.958;10.994;2022-07-23T04:31:27;98667.53;;;17.44;100.00
29907;BME280;16776;50.958;10.994;2022-07-23T04:33:54;98646.84;;;17.40;100.00
29907;BME280;16776;50.958;10.994;2022-07-23T04:36:20;98638.13;;;17.42;100.00
29907;BME280;16776;50.958;10.994;2022-07-23T04:38:47;98621.66;;;17.41;100.00
29907;BME280;16776;50.958;10.994;2022-07-23T04:41:13;98590.41;;;17.41;100.00
29907;BME280;16776;50.958;10.994;2022-07-23T04:43:40;98566.06;;;17.42;100.00
29907;BME280;16776;50.958;10.994;2022-07-23T04:46:06;98574.81;;;17.41;100.00
29907;BME280;16776;50.958;10.994;2022-07-23T04:48:34;98574.81;;;17.41;100.00
29907;BME280;16776;50.958;10.994;2022-07-23T04:51:01;98573.50;;;17.34;100.00
29907;BME280;16776;50.958;10.994;2022-07-23T04:53:27;98566.75;;;17.30;100.00
29907;BME280;16776;50.958;10.994;2022-07-23T04:55:54;98551.56;;;17.22;100.00
29907;BME280;16776;50.958;10.994;2022-07-23T04:58:21;98567.09;;;17.24;100.00
29907;BME280;16776;50.958;10.994;2022-07-23T05:00:47;98585.50;;;17.21;100.00
29907;BME280;16776;50.958;10.994;2022-07-23T05:03:14;98585.56;;;17.19;100.00
29907;BME280;16776;50.958;10.994;2022-07-23T05:05:42;98592.78;;;17.14;100.00
29907;BME280;16776;50.958;10.994;2022-07-23T05:08:08;98586.13;;;17.09;100.00
29907;BME280;16776;50.958;10.994;2022-07-23T05:10:35;98593.44;;;17.18;100.00
29907;BME280;16776;50.958;10.994;2022-07-23T05:13:01;98602.03;;;17.20;100.00
29907;BME280;16776;50.958;10.994;2022-07-23T05:15:28;98606.31;;;17.21;100.00
29907;BME280;16776;50.958;10.994;2022-07-23T05:17:55;98619.16;;;17.24;100.00
29907;BME280;16776;50.958;10.994;2022-07-23T05:20:22;98608.66;;;17.25;100.00
29907;BME280;16776;50.958;10.994;2022-07-23T05:22:50;98602.28;;;17.31;100.00
29907;BME280;16776;50.958;10.994;2022-07-23T05:25:16;98602.34;;;17.29;100.00
29907;BME280;16776;50.958;10.994;2022-07-23T05:27:43;98612.28;;;17.38;100.00
29907;BME280;16776;50.958;10.994;2022-07-23T05:30:10;98602.94;;;17.50;100.00
29907;BME280;16776;50.958;10.994;2022-07-23T05:32:37;98608.72;;;17.71;100.00
29907;BME280;16776;50.958;10.994;2022-07-23T05:35:05;98608.38;;;17.93;100.00
29907;BME280;16776;50.958;10.994;2022-07-23T05:37:31;98615.13;;;18.11;100.00
29907;BME280;16776;50.958;10.994;2022-07-23T05:40:01;98611.28;;;18.32;100.00
29907;BME280;16776;50.958;10.994;2022-07-23T05:42:28;98608.88;;;18.43;100.00
29907;BME280;16776;50.958;10.994;2022-07-23T05:44:55;98595.16;;;18.55;100.00
29907;BME280;16776;50.958;10.994;2022-07-23T05:47:22;98597.22;;;18.65;100.00
29907;BME280;16776;50.958;10.994;2022-07-23T05:49:48;98607.09;;;18.74;100.00
29907;BME280;16776;50.958;10.994;2022-07-23T05:52:15;98609.44;;;18.78;100.00
29907;BME280;16776;50.958;10.994;2022-07-23T05:54:41;98619.50;;;18.84;100.00
29907;BME280;16776;50.958;10.994;2022-07-23T05:57:09;98621.56;;;18.93;100.00
29907;BME280;16776;50.958;10.994;2022-07-23T05:59:36;98624.81;;;18.97;100.00
29907;BME280;16776;50.958;10.994;2022-07-23T06:02:02;98616.59;;;19.03;100.00
29907;BME280;16776;50.958;10.994;2022-07-23T06:04:29;98624.03;;;19.09;100.00
29907;BME280;16776;50.958;10.994;2022-07-23T06:06:55;98621.81;;;19.17;100.00
29907;BME280;16776;50.958;10.994;2022-07-23T06:09:22;98630.78;;;19.27;100.00
29907;BME280;16776;50.958;10.994;2022-07-23T06:11:48;98627.31;;;19.41;100.00
29907;BME280;16776;50.958;10.994;2022-07-23T06:14:16;98631.47;;;19.58;100.00
29907;BME280;16776;50.958;10.994;2022-07-23T06:16:44;98622.72;;;19.71;100.00
29907;BME280;16776;50.958;10.994;2022-07-23T06:19:11;98619.16;;;19.87;100.00
29907;BME280;16776;50.958;10.994;2022-07-23T06:21:37;98623.28;;;20.03;100.00
29907;BME280;16776;50.958;10.994;2022-07-23T06:24:04;98619.78;;;20.17;100.00
29907;BME280;16776;50.958;10.994;2022-07-23T06:26:31;98628.47;;;20.30;100.00
29907;BME280;16776;50.958;10.994;2022-07-23T06:28:57;98625.28;;;20.39;100.00
29907;BME280;16776;50.958;10.994;2022-07-23T06:31:25;98622.75;;;20.50;100.00
29907;BME280;16776;50.958;10.994;2022-07-23T06:33:52;98628.66;;;20.54;100.00
29907;BME280;16776;50.958;10.994;2022-07-23T06:36:18;98627.06;;;20.51;100.00
29907;BME280;16776;50.958;10.994;2022-07-23T06:38:45;98624.91;;;20.58;100.00
29907;BME280;16776;50.958;10.994;2022-07-23T06:41:11;98629.28;;;20.58;100.00
29907;BME280;16776;50.958;10.994;2022-07-23T06:43:38;98624.13;;;20.56;100.00
29907;BME280;16776;50.958;10.994;2022-07-23T06:46:04;98638.06;;;20.56;100.00
29907;BME280;16776;50.958;10.994;2022-07-23T06:48:32;98640.59;;;20.58;100.00
29907;BME280;16776;50.958;10.994;2022-07-23T06:51:00;98630.28;;;20.55;100.00
29907;BME280;16776;50.958;10.994;2022-07-23T06:53:27;98632.91;;;20.55;100.00
29907;BME280;16776;50.958;10.994;2022-07-23T06:55:54;98629.59;;;20.53;100.00
29907;BME280;16776;50.958;10.994;2022-07-23T06:58:20;98625.19;;;20.53;100.00
29907;BME280;16776;50.958;10.994;2022-07-23T07:00:47;98625.84;;;20.57;100.00
29907;BME280;16776;50.958;10.994;2022-07-23T07:03:14;98620.28;;;20.62;100.00
29907;BME280;16776;50.958;10.994;2022-07-23T07:05:41;98629.31;;;20.70;100.00
29907;BME280;16776;50.958;10.994;2022-07-23T07:08:08;98629.09;;;20.73;100.00
29907;BME280;16776;50.958;10.994;2022-07-23T07:10:34;98630.66;;;20.76;100.00
29907;BME280;16776;50.958;10.994;2022-07-23T07:13:01;98630.56;;;20.77;100.00
29907;BME280;16776;50.958;10.994;2022-07-23T07:15:28;98638.50;;;20.76;100.00
29907;BME280;16776;50.958;10.994;2022-07-23T07:17:54;98637.75;;;20.74;100.00
29907;BME280;16776;50.958;10.994;2022-07-23T07:20:21;98632.94;;;20.68;100.00
29907;BME280;16776;50.958;10.994;2022-07-23T07:22:50;98633.91;;;20.67;100.00
29907;BME280;16776;50.958;10.994;2022-07-23T07:25:16;98634.59;;;20.56;100.00
29907;BME280;16776;50.958;10.994;2022-07-23T07:27:43;98620.66;;;20.43;100.00
29907;BME280;16776;50.958;10.994;2022-07-23T07:30:11;98616.25;;;20.31;100.00
29907;BME280;16776;50.958;10.994;2022-07-23T07:32:37;98638.66;;;20.35;100.00
29907;BME280;16776;50.958;10.994;2022-07-23T07:35:05;98649.72;;;20.26;100.00
29907;BME280;16776;50.958;10.994;2022-07-23T07:37:32;98661.63;;;20.17;100.00
29907;BME280;16776;50.958;10.994;2022-07-23T07:40:00;98664.63;;;20.11;100.00
29907;BME280;16776;50.958;10.994;2022-07-23T07:42:27;98661.03;;;19.99;100.00
29907;BME280;16776;50.958;10.994;2022-07-23T07:44:53;98649.53;;;19.89;100.00
29907;BME280;16776;50.958;10.994;2022-07-23T07:47:20;98645.59;;;19.82;100.00
29907;BME280;16776;50.958;10.994;2022-07-23T07:49:50;98649.97;;;19.82;100.00
29907;BME280;16776;50.958;10.994;2022-07-23T07:52:16;98647.84;;;19.74;100.00
29907;BME280;16776;50.958;10.994;2022-07-23T07:54:43;98665.38;;;19.72;100.00
29907;BME280;16776;50.958;10.994;2022-07-23T07:57:11;98676.50;;;19.75;100.00
29907;BME280;16776;50.958;10.994;2022-07-23T07:59:37;98687.03;;;19.74;100.00
29907;BME280;16776;50.958;10.994;2022-07-23T08:02:06;98682.66;;;19.74;100.00
29907;BME280;16776;50.958;10.994;2022-07-23T08:04:32;98686.94;;;19.75;100.00
29907;BME280;16776;50.958;10.994;2022-07-23T08:06:58;98691.34;;;19.75;100.00
29907;BME280;16776;50.958;10.994;2022-07-23T08:09:28;98693.09;;;19.74;100.00
29907;BME280;16776;50.958;10.994;2022-07-23T08:11:55;98700.09;;;19.74;100.00
29907;BME280;16776;50.958;10.994;2022-07-23T08:14:22;98699.94;;;19.77;100.00
29907;BME280;16776;50.958;10.994;2022-07-23T08:16:49;98705.25;;;19.75;100.00
29907;BME280;16776;50.958;10.994;2022-07-23T08:19:15;98714.75;;;19.76;100.00
29907;BME280;16776;50.958;10.994;2022-07-23T08:21:42;98719.16;;;19.76;100.00
29907;BME280;16776;50.958;10.994;2022-07-23T08:24:09;98720.00;;;19.76;100.00
29907;BME280;16776;50.958;10.994;2022-07-23T08:26:35;98703.47;;;19.76;100.00
29907;BME280;16776;50.958;10.994;2022-07-23T08:29:02;98705.16;;;19.77;100.00
29907;BME280;16776;50.958;10.994;2022-07-23T08:31:30;98713.63;;;19.81;100.00
29907;BME280;16776;50.958;10.994;2022-07-23T08:33:58;98718.94;;;19.79;100.00
29907;BME280;16776;50.958;10.994;2022-07-23T08:36:24;98706.72;;;19.80;100.00
29907;BME280;16776;50.958;10.994;2022-07-23T08:38:52;98700.56;;;19.81;100.00
29907;BME280;16776;50.958;10.994;2022-07-23T08:41:19;98685.19;;;19.76;100.00
29907;BME280;16776;50.958;10.994;2022-07-23T08:43:46;98695.25;;;19.82;100.00
29907;BME280;16776;50.958;10.994;2022-07-23T08:46:13;98709.41;;;19.92;100.00
29907;BME280;16776;50.958;10.994;2022-07-23T08:48:41;98699.63;;;19.96;100.00
29907;BME280;16776;50.958;10.994;2022-07-23T08:51:08;98692.81;;;19.93;100.00
29907;BME280;16776;50.958;10.994;2022-07-23T08:53:35;98700.25;;;19.99;100.00
29907;BME280;16776;50.958;10.994;2022-07-23T08:56:06;98686.75;;;19.93;100.00
29907;BME280;16776;50.958;10.994;2022-07-23T08:58:35;98709.56;;;20.03;100.00
29907;BME280;16776;50.958;10.994;2022-07-23T09:01:02;98712.00;;;20.06;100.00
29907;BME280;16776;50.958;10.994;2022-07-23T09:03:31;98718.69;;;20.10;100.00
29907;BME280;16776;50.958;10.994;2022-07-23T09:06:00;98719.25;;;20.15;100.00
29907;BME280;16776;50.958;10.994;2022-07-23T09:08:35;98727.34;;;20.25;100.00
29907;BME280;16776;50.958;10.994;2022-07-23T09:11:03;98737.16;;;20.22;100.00
29907;BME280;16776;50.958;10.994;2022-07-23T09:13:33;98743.88;;;20.26;100.00
29907;BME280;16776;50.958;10.994;2022-07-23T09:16:03;98727.25;;;20.27;100.00
29907;BME280;16776;50.958;10.994;2022-07-23T09:18:41;98735.09;;;20.27;100.00
29907;BME280;16776;50.958;10.994;2022-07-23T09:21:12;98741.78;;;20.31;100.00
29907;BME280;16776;50.958;10.994;2022-07-23T09:23:41;98740.09;;;20.30;100.00
29907;BME280;16776;50.958;10.994;2022-07-23T09:26:21;98744.75;;;20.39;100.00
29907;BME280;16776;50.958;10.994;2022-07-23T09:28:54;98744.84;;;20.37;100.00
29907;BME280;16776;50.958;10.994;2022-07-23T09:31:21;98740.75;;;20.33;100.00
29907;BME280;16776;50.958;10.994;2022-07-23T09:33:48;98740.69;;;20.35;100.00
29907;BME280;16776;50.958;10.994;2022-07-23T09:36:27;98750.34;;;20.47;100.00
29907;BME280;16776;50.958;10.994;2022-07-23T09:38:54;98754.56;;;20.35;100.00
29907;BME280;16776;50.958;10.994;2022-07-23T09:41:20;98742.31;;;20.36;100.00
29907;BME280;16776;50.958;10.994;2022-07-23T09:43:54;98746.22;;;20.43;100.00
29907;BME280;16776;50.958;10.994;2022-07-23T09:46:23;98741.38;;;20.37;100.00
29907;BME280;16776;50.958;10.994;2022-07-23T09:48:50;98734.47;;;20.36;100.00
29907;BME280;16776;50.958;10.994;2022-07-23T09:51:19;98728.84;;;20.42;100.00
29907;BME280;16776;50.958;10.994;2022-07-23T09:53:53;98731.28;;;20.45;100.00
29907;BME280;16776;50.958;10.994;2022-07-23T09:56:20;98733.03;;;20.59;100.00
29907;BME280;16776;50.958;10.994;2022-07-23T09:58:49;98725.81;;;20.75;100.00
29907;BME280;16776;50.958;10.994;2022-07-23T10:01:16;98733.81;;;20.86;100.00
29907;BME280;16776;50.958;10.994;2022-07-23T10:03:43;98732.66;;;21.03;100.00
29907;BME280;16776;50.958;10.994;2022-07-23T10:06:12;98741.13;;;21.19;100.00
29907;BME280;16776;50.958;10.994;2022-07-23T10:08:41;98739.19;;;21.35;100.00
29907;BME280;16776;50.958;10.994;2022-07-23T10:11:09;98747.03;;;21.48;100.00
29907;BME280;16776;50.958;10.994;2022-07-23T10:13:38;98745.56;;;21.56;100.00
29907;BME280;16776;50.958;10.994;2022-07-23T10:16:18;98747.75;;;21.62;100.00
29907;BME280;16776;50.958;10.994;2022-07-23T10:18:45;98749.94;;;21.68;100.00
29907;BME280;16776;50.958;10.994;2022-07-23T10:21:17;98751.06;;;21.77;100.00
29907;BME280;16776;50.958;10.994;2022-07-23T10:23:56;98756.19;;;21.79;100.00
29907;BME280;16776;50.958;10.994;2022-07-23T10:26:31;98749.28;;;21.78;100.00
29907;BME280;16776;50.958;10.994;2022-07-23T10:29:09;98746.03;;;21.74;100.00
29907;BME280;16776;50.958;10.994;2022-07-23T10:31:46;98742.78;;;21.70;100.00
29907;BME280;16776;50.958;10.994;2022-07-23T10:34:19;98748.47;;;21.64;100.00
29907;BME280;16776;50.958;10.994;2022-07-23T10:36:51;98752.25;;;21.60;100.00
29907;BME280;16776;50.958;10.994;2022-07-23T10:39:24;98751.41;;;21.60;100.00
29907;BME280;16776;50.958;10.994;2022-07-23T10:41:52;98749.56;;;21.49;100.00
29907;BME280;16776;50.958;10.994;2022-07-23T10:44:38;98733.00;;;21.49;100.00
29907;BME280;16776;50.958;10.994;2022-07-23T10:47:06;98741.69;;;21.49;100.00
29907;BME280;16776;50.958;10.994;2022-07-23T10:49:46;98738.00;;;21.52;100.00
29907;BME280;16776;50.958;10.994;2022-07-23T10:52:17;98742.38;;;21.64;100.00
29907;BME280;16776;50.958;10.994;2022-07-23T10:54:47;98735.88;;;21.69;100.00
29907;BME280;16776;50.958;10.994;2022-07-23T10:57:15;98743.09;;;21.79;100.00
29907;BME280;16776;50.958;10.994;2022-07-23T11:00:20;98744.63;;;22.06;100.00
29907;BME280;16776;50.958;10.994;2022-07-23T11:02:50;98747.41;;;22.16;100.00
29907;BME280;16776;50.958;10.994;2022-07-23T11:05:18;98749.13;;;22.28;100.00
29907;BME280;16776;50.958;10.994;2022-07-23T11:08:17;98756.22;;;22.51;100.00
29907;BME280;16776;50.958;10.994;2022-07-23T11:10:49;98754.06;;;22.57;100.00
29907;BME280;16776;50.958;10.994;2022-07-23T11:13:36;98748.41;;;22.74;100.00
29907;BME280;16776;50.958;10.994;2022-07-23T11:16:14;98739.56;;;22.75;100.00
29907;BME280;16776;50.958;10.994;2022-07-23T11:19:05;98747.84;;;22.81;100.00
29907;BME280;16776;50.958;10.994;2022-07-23T11:21:48;98748.66;;;22.82;100.00
29907;BME280;16776;50.958;10.994;2022-07-23T11:24:20;98759.63;;;22.76;100.00
29907;BME280;16776;50.958;10.994;2022-07-23T11:26:58;98762.00;;;22.79;100.00
29907;BME280;16776;50.958;10.994;2022-07-23T11:29:45;98753.94;;;22.82;100.00
29907;BME280;16776;50.958;10.994;2022-07-23T11:35:20;98757.28;;;22.84;100.00
29907;BME280;16776;50.958;10.994;2022-07-23T11:37:48;98761.78;;;22.71;100.00
29907;BME280;16776;50.958;10.994;2022-07-23T11:40:17;98758.31;;;22.70;100.00
29907;BME280;16776;50.958;10.994;2022-07-23T11:42:54;98753.44;;;22.77;100.00
29907;BME280;16776;50.958;10.994;2022-07-23T11:45:22;98751.47;;;22.68;100.00
29907;BME280;16776;50.958;10.994;2022-07-23T11:47:48;98754.00;;;22.69;100.00
29907;BME280;16776;50.958;10.994;2022-07-23T11:50:15;98744.94;;;22.73;100.00
29907;BME280;16776;50.958;10.994;2022-07-23T11:52:42;98747.00;;;22.81;100.00
29907;BME280;16776;50.958;10.994;2022-07-23T11:55:10;98742.59;;;22.92;100.00
29907;BME280;16776;50.958;10.994;2022-07-23T11:57:39;98751.34;;;23.04;100.00
29907;BME280;16776;50.958;10.994;2022-07-23T12:00:12;98745.44;;;23.24;100.00
29907;BME280;16776;50.958;10.994;2022-07-23T12:02:40;98742.31;;;23.30;100.00
29907;BME280;16776;50.958;10.994;2022-07-23T12:05:08;98740.69;;;23.41;100.00
29907;BME280;16776;50.958;10.994;2022-07-23T12:07:39;98736.13;;;23.54;100.00
29907;BME280;16776;50.958;10.994;2022-07-23T12:10:11;98734.44;;;23.64;100.00
29907;BME280;16776;50.958;10.994;2022-07-23T12:12:40;98727.88;;;23.69;100.00
29907;BME280;16776;50.958;10.994;2022-07-23T12:15:10;98727.88;;;23.81;100.00
29907;BME280;16776;50.958;10.994;2022-07-23T12:17:40;98729.91;;;23.88;100.00
29907;BME280;16776;50.958;10.994;2022-07-23T12:20:09;98724.75;;;23.98;100.00
29907;BME280;16776;50.958;10.994;2022-07-23T12:22:38;98724.25;;;24.04;100.00
29907;BME280;16776;50.958;10.994;2022-07-23T12:25:08;98716.25;;;24.05;100.00
29907;BME280;16776;50.958;10.994;2022-07-23T12:27:35;98715.97;;;24.08;100.00
29907;BME280;16776;50.958;10.994;2022-07-23T12:30:19;98714.25;;;24.30;100.00
29907;BME280;16776;50.958;10.994;2022-07-23T12:32:48;98711.72;;;24.28;100.00
29907;BME280;16776;50.958;10.994;2022-07-23T12:35:15;98712.09;;;24.35;99.99
29907;BME280;16776;50.958;10.994;2022-07-23T12:37:44;98707.16;;;24.41;100.00
29907;BME280;16776;50.958;10.994;2022-07-23T12:40:25;98697.16;;;24.56;100.00
29907;BME280;16776;50.958;10.994;2022-07-23T12:42:54;98715.22;;;24.61;100.00
29907;BME280;16776;50.958;10.994;2022-07-23T12:45:22;98703.53;;;24.74;100.00
29907;BME280;16776;50.958;10.994;2022-07-23T12:47:54;98708.31;;;24.90;99.31
29907;BME280;16776;50.958;10.994;2022-07-23T12:50:44;98698.72;;;25.00;99.71
29907;BME280;16776;50.958;10.994;2022-07-23T12:53:14;98696.09;;;25.00;99.71